Terminal Aerodrome Forecast
Issued by NWS

Home | Current Version | Previous Version | Text Only | Print | Product List | Glossary On
Versions: 1 2 3 4 5 6 7 8 9 10 11 12 13
000
FTUS45 KGGW 110532
TAFSDY
TAF
KSDY 110532Z 1106/1206 31026G39KT P6SM FEW045 SCT150
     FM110900 31024G35KT P6SM BKN030
     FM111400 31017G28KT P6SM OVC018
     FM112000 31011KT P6SM SCT025
     FM112300 28004KT P6SM SCT070=

USA.gov is the U.S. government's official web portal to all federal, state and local government web resources and services.